Terminal Aerodrome Forecast
Issued by NWS Buffalo, NY

Home | Current Version | Previous Version | Text Only | Print | Product List | Glossary On
Versions: 1 2 3 4 5 6 7 8 9 10 11 12 13 14 15 16 17 18 19 20 21 22 23 24 25 26
000
FTUS41 KBUF 010538
TAFART
TAF
KART 010538Z 0106/0206 VRB03KT 1SM BR FEW010
     FM010900 VRB03KT 1/4SM FG BKN008
     FM011300 19004KT P6SM FEW250
     FM011700 23008KT P6SM FEW250
     FM020000 19004KT P6SM SCT140=

USA.gov is the U.S. government's official web portal to all federal, state and local government web resources and services.